createdAt,value
2018-10-03T00:01:51.428Z,3.70
2018-10-03T00:04:20.279Z,4.77
2018-10-03T00:06:49.277Z,4.70
2018-10-03T00:09:19.829Z,3.67
2018-10-03T00:11:51.428Z,4.80
2018-10-03T00:14:21.172Z,3.40
2018-10-03T00:16:52.257Z,2.60
2018-10-03T00:19:21.576Z,2.87
2018-10-03T00:21:51.013Z,3.80
2018-10-03T00:24:22.368Z,3.87
2018-10-03T00:26:54.332Z,4.67
2018-10-03T00:29:23.333Z,8.73
2018-10-03T00:31:52.057Z,4.20
2018-10-03T00:34:22.164Z,6.30
2018-10-03T00:36:52.064Z,5.10
2018-10-03T00:39:22.281Z,4.07
2018-10-03T00:41:51.632Z,3.37
2018-10-03T00:44:20.368Z,4.43
2018-10-03T00:46:49.240Z,2.90
2018-10-03T00:49:19.553Z,3.03
2018-10-03T00:51:52.298Z,7.30
2018-10-03T00:54:21.417Z,4.10
2018-10-03T00:56:53.102Z,2.50
2018-10-03T00:59:23.908Z,6.07
2018-10-03T01:01:53.910Z,3.57
2018-10-03T01:04:24.227Z,4.30
2018-10-03T01:06:52.979Z,4.33
2018-10-03T01:09:22.274Z,5.87
2018-10-03T01:11:51.631Z,4.77
2018-10-03T01:14:21.135Z,2.93
2018-10-03T01:16:49.951Z,3.67
2018-10-03T01:19:21.007Z,4.17
2018-10-03T01:21:50.567Z,3.37
2018-10-03T01:24:19.651Z,3.50
2018-10-03T01:26:48.693Z,3.27
2018-10-03T01:29:17.549Z,3.90
2018-10-03T01:31:46.447Z,4.80
2018-10-03T01:34:17.162Z,3.13
2018-10-03T01:36:46.944Z,5.30
2018-10-03T01:39:16.583Z,4.60
2018-10-03T01:41:47.613Z,4.27
2018-10-03T01:44:16.832Z,5.70
2018-10-03T01:47:06.099Z,4.10
2018-10-03T01:49:35.252Z,8.10
2018-10-03T01:52:04.295Z,3.67
2018-10-03T01:54:34.271Z,3.10
2018-10-03T01:57:04.124Z,4.83
2018-10-03T01:59:33.688Z,4.80
2018-10-03T02:02:02.260Z,3.70
2018-10-03T02:04:31.666Z,6.60
2018-10-03T02:07:00.315Z,6.17
2018-10-03T02:09:29.732Z,4.50
2018-10-03T02:11:58.469Z,3.80
2018-10-03T02:14:29.585Z,2.40
2018-10-03T02:16:58.126Z,5.30
2018-10-03T02:19:27.611Z,3.43
2018-10-03T02:22:00.049Z,2.57
2018-10-03T02:24:29.123Z,5.20
2018-10-03T02:26:58.668Z,3.97
2018-10-03T02:29:28.689Z,5.40
2018-10-03T02:32:00.948Z,3.77
2018-10-03T02:34:30.880Z,8.77
2018-10-03T02:37:00.423Z,4.50
2018-10-03T02:39:31.043Z,6.83
2018-10-03T02:42:00.217Z,3.90
2018-10-03T02:44:28.684Z,4.93
2018-10-03T02:46:58.139Z,3.67
2018-10-03T02:49:28.099Z,5.00
2018-10-03T02:51:58.074Z,4.30
2018-10-03T02:54:27.300Z,6.00
2018-10-03T02:56:58.384Z,3.50
2018-10-03T02:59:28.520Z,4.00
2018-10-03T03:01:58.423Z,8.63
2018-10-03T03:04:28.471Z,5.00
2018-10-03T03:06:57.660Z,3.50
2018-10-03T03:09:27.829Z,5.33
2018-10-03T03:11:56.676Z,3.27
2018-10-03T03:14:26.290Z,5.10
2018-10-03T03:16:54.783Z,4.60
2018-10-03T03:19:24.447Z,5.03
2018-10-03T03:21:53.107Z,3.13
2018-10-03T03:24:23.580Z,3.27
2018-10-03T03:26:54.219Z,5.63
2018-10-03T03:29:23.607Z,4.27
2018-10-03T03:31:52.711Z,3.97
2018-10-03T03:34:22.453Z,5.10
2018-10-03T03:36:59.111Z,3.53
2018-10-03T03:39:30.664Z,5.30
2018-10-03T03:41:59.808Z,5.07
2018-10-03T03:44:30.025Z,3.27
2018-10-03T03:46:58.737Z,2.60
2018-10-03T03:49:27.575Z,3.60
2018-10-03T03:51:56.720Z,6.90
2018-10-03T03:54:26.299Z,3.53
2018-10-03T03:56:55.317Z,5.60
2018-10-03T03:59:26.460Z,4.70
2018-10-03T04:01:56.462Z,3.03
2018-10-03T04:04:24.955Z,7.83
2018-10-03T04:06:55.635Z,7.03
2018-10-03T04:09:25.712Z,5.03
2018-10-03T04:11:56.697Z,4.03
2018-10-03T04:14:25.753Z,3.40
2018-10-03T04:16:54.267Z,8.40
2018-10-03T04:19:23.461Z,2.30
2018-10-03T04:21:52.003Z,4.50
2018-10-03T04:24:21.981Z,4.37
2018-10-03T04:26:51.783Z,4.47
2018-10-03T04:29:21.747Z,3.83
2018-10-03T04:31:52.142Z,3.97
2018-10-03T04:34:21.298Z,4.00
2018-10-03T04:36:53.819Z,4.50
2018-10-03T04:39:24.278Z,4.90
2018-10-03T04:41:53.155Z,4.63
2018-10-03T04:44:23.216Z,5.57
2018-10-03T04:46:56.523Z,4.70
2018-10-03T04:49:26.165Z,3.67
2018-10-03T04:51:56.103Z,4.10
2018-10-03T04:54:25.904Z,4.23
2018-10-03T04:56:54.439Z,3.90
2018-10-03T04:59:23.817Z,2.50
2018-10-03T05:01:59.233Z,3.60
2018-10-03T05:04:28.396Z,4.03
2018-10-03T05:06:58.983Z,6.03
2018-10-03T05:09:27.943Z,4.07
2018-10-03T05:11:58.156Z,4.53
2018-10-03T05:14:27.444Z,3.90
2018-10-03T05:16:56.007Z,2.37
2018-10-03T05:19:24.962Z,3.87
2018-10-03T05:21:54.917Z,4.97
2018-10-03T05:24:24.129Z,3.07
2018-10-03T05:26:55.723Z,3.37
2018-10-03T05:29:24.228Z,5.50
2018-10-03T05:31:53.829Z,2.70
2018-10-03T05:34:22.811Z,3.33
2018-10-03T05:36:52.124Z,4.03
2018-10-03T05:39:21.386Z,4.07
2018-10-03T05:41:50.456Z,3.40
2018-10-03T05:44:20.329Z,2.73
2018-10-03T05:46:49.788Z,3.27
2018-10-03T05:49:18.551Z,3.83
2018-10-03T05:51:50.047Z,5.03
2018-10-03T05:54:18.541Z,2.90
2018-10-03T05:56:49.229Z,5.20
2018-10-03T05:59:18.803Z,6.07
2018-10-03T06:01:47.944Z,9.23
2018-10-03T06:04:18.340Z,5.93
2018-10-03T06:06:46.952Z,6.73
2018-10-03T06:09:16.907Z,7.33
2018-10-03T06:11:46.619Z,2.90
2018-10-03T06:14:17.173Z,5.83
2018-10-03T06:16:47.143Z,5.07
2018-10-03T06:19:17.152Z,6.20
2018-10-03T06:21:46.772Z,3.53
2018-10-03T06:24:15.514Z,3.03
2018-10-03T06:26:44.680Z,2.87
2018-10-03T06:29:16.712Z,7.97
2018-10-03T06:31:47.063Z,2.77
2018-10-03T06:34:17.058Z,3.33
2018-10-03T06:36:46.764Z,6.43
2018-10-03T06:39:17.133Z,8.23
2018-10-03T06:41:47.861Z,8.70
2018-10-03T06:44:20.001Z,7.87
2018-10-03T06:46:50.931Z,3.57
2018-10-03T06:49:21.951Z,3.73
2018-10-03T06:51:52.228Z,3.00
2018-10-03T06:54:22.216Z,3.37
2018-10-03T06:56:54.665Z,3.93
2018-10-03T06:59:24.874Z,5.37
2018-10-03T07:01:54.312Z,6.03
2018-10-03T07:04:24.913Z,6.07
2018-10-03T07:06:58.511Z,4.90
2018-10-03T07:09:28.579Z,6.40
2018-10-03T07:11:58.259Z,4.53
2018-10-03T07:14:27.085Z,3.47
2018-10-03T07:16:57.804Z,5.70
2018-10-03T07:19:27.818Z,6.63
2018-10-03T07:22:00.308Z,3.33
2018-10-03T07:24:29.807Z,3.60
2018-10-03T07:27:00.612Z,3.90
2018-10-03T07:29:31.643Z,3.50
2018-10-03T07:32:00.572Z,4.27
2018-10-03T07:34:30.220Z,4.27
2018-10-03T07:37:00.039Z,4.13
2018-10-03T07:39:30.143Z,7.13
2018-10-03T07:42:00.675Z,4.87
2018-10-03T07:44:30.771Z,7.37
2018-10-03T07:46:59.865Z,4.93
2018-10-03T07:49:32.293Z,5.40
2018-10-03T07:52:02.207Z,4.30
2018-10-03T07:54:31.996Z,7.33
2018-10-03T07:57:01.275Z,4.73
2018-10-03T07:59:33.105Z,4.73
2018-10-03T08:02:05.603Z,4.63
2018-10-03T08:04:35.179Z,8.10
2018-10-03T08:07:04.897Z,4.10
2018-10-03T08:09:36.060Z,5.13
2018-10-03T08:12:05.013Z,6.10
2018-10-03T08:14:34.522Z,14.63
2018-10-03T08:17:03.615Z,9.33
2018-10-03T08:19:36.067Z,12.50
2018-10-03T08:22:05.652Z,4.10
2018-10-03T08:24:34.390Z,9.60
2018-10-03T08:27:05.296Z,4.07
2018-10-03T08:29:34.869Z,23.73
2018-10-03T08:32:04.690Z,10.10
2018-10-03T08:34:35.493Z,6.93
2018-10-03T08:37:05.596Z,5.93
2018-10-03T08:39:42.207Z,4.80
2018-10-03T08:42:12.728Z,6.60
2018-10-03T08:44:44.267Z,7.80
2018-10-03T08:47:13.948Z,6.63
2018-10-03T08:49:43.904Z,4.43
2018-10-03T08:52:12.905Z,4.00
2018-10-03T08:54:43.102Z,3.60
2018-10-03T08:57:13.119Z,5.27
2018-10-03T08:59:44.121Z,4.07
2018-10-03T09:02:15.156Z,5.90
2018-10-03T09:04:45.267Z,4.00
2018-10-03T09:07:15.961Z,6.53
2018-10-03T09:09:51.523Z,6.70
2018-10-03T09:12:20.941Z,6.77
2018-10-03T09:14:51.433Z,5.80
2018-10-03T09:17:22.725Z,6.63
2018-10-03T09:19:52.500Z,9.30
2018-10-03T09:22:23.739Z,8.07
2018-10-03T09:24:57.833Z,6.50
2018-10-03T09:27:28.222Z,4.83
2018-10-03T09:29:57.312Z,6.43
2018-10-03T09:32:26.423Z,6.67
2018-10-03T09:34:54.948Z,7.70
2018-10-03T09:37:27.490Z,5.70
2018-10-03T09:40:03.223Z,11.00
2018-10-03T09:42:34.128Z,7.30
2018-10-03T09:45:05.779Z,7.70
2018-10-03T09:47:35.757Z,6.13
2018-10-03T09:50:05.398Z,7.33
2018-10-03T09:52:37.616Z,6.10
2018-10-03T09:55:08.870Z,10.73
2018-10-03T09:57:37.650Z,6.13
2018-10-03T10:00:09.479Z,9.93
2018-10-03T10:02:42.931Z,6.00
2018-10-03T10:05:11.891Z,6.77
2018-10-03T10:07:41.912Z,6.90
2018-10-03T10:10:12.095Z,7.00
2018-10-03T10:12:41.917Z,6.67
2018-10-03T10:15:11.873Z,7.33
2018-10-03T10:17:41.957Z,6.63
2018-10-03T10:20:11.517Z,7.10
2018-10-03T10:22:39.999Z,7.77
2018-10-03T10:25:08.840Z,8.30
2018-10-03T10:27:38.243Z,6.20
2018-10-03T10:30:16.195Z,7.17
2018-10-03T10:32:45.741Z,7.43
2018-10-03T10:35:15.408Z,5.40
2018-10-03T10:37:44.474Z,7.60
2018-10-03T10:40:15.196Z,6.07
2018-10-03T10:42:44.348Z,6.73
2018-10-03T10:45:15.072Z,6.10
2018-10-03T10:47:44.125Z,8.67
2018-10-03T10:50:13.460Z,6.97
2018-10-03T10:52:43.363Z,5.77
2018-10-03T10:55:12.968Z,6.20
2018-10-03T10:58:13.452Z,6.43
2018-10-03T11:11:29.052Z,9.00
2018-10-03T11:14:06.942Z,8.10
2018-10-03T11:17:03.903Z,6.37
2018-10-03T11:19:43.596Z,5.90
2018-10-03T11:22:13.023Z,6.63
2018-10-03T11:24:41.965Z,7.47
2018-10-03T11:27:11.524Z,8.17
2018-10-03T11:29:41.954Z,6.67
2018-10-03T11:32:19.287Z,6.60
2018-10-03T11:34:49.508Z,8.20
2018-10-03T11:37:20.403Z,6.80
2018-10-03T11:39:49.916Z,6.17
2018-10-03T11:42:19.780Z,6.80
2018-10-03T11:44:48.635Z,6.57
2018-10-03T11:47:18.177Z,10.30
2018-10-03T11:49:48.313Z,5.83
2018-10-03T11:52:17.746Z,6.83
2018-10-03T11:54:46.792Z,7.53
2018-10-03T11:57:15.531Z,4.53
2018-10-03T11:59:45.559Z,8.20
2018-10-03T12:02:15.425Z,7.87
2018-10-03T12:04:44.808Z,6.33
2018-10-03T12:07:15.064Z,7.33
2018-10-03T12:09:43.625Z,8.37
2018-10-03T12:12:14.460Z,9.30
2018-10-03T12:14:43.072Z,7.33
2018-10-03T12:17:13.058Z,8.00
2018-10-03T12:19:43.086Z,8.20
2018-10-03T12:22:12.449Z,5.30
2018-10-03T12:24:41.248Z,9.13
2018-10-03T12:27:11.508Z,10.20
2018-10-03T12:29:42.652Z,9.03
2018-10-03T12:32:12.144Z,9.03
2018-10-03T12:34:43.235Z,8.30
2018-10-03T12:37:12.828Z,9.77
2018-10-03T12:39:43.514Z,7.30
2018-10-03T12:42:13.516Z,6.90
2018-10-03T12:44:43.681Z,6.50
2018-10-03T12:47:13.129Z,8.10
2018-10-03T12:49:42.551Z,8.80
2018-10-03T12:52:12.232Z,7.43
2018-10-03T12:54:45.770Z,7.93
2018-10-03T12:57:18.004Z,7.27
2018-10-03T12:59:47.412Z,8.77
2018-10-03T13:02:17.147Z,6.87
2018-10-03T13:04:46.154Z,6.20
2018-10-03T13:07:16.772Z,7.70
2018-10-03T13:09:45.609Z,7.33
2018-10-03T13:12:16.213Z,7.40
2018-10-03T13:14:45.409Z,7.93
2018-10-03T13:17:15.683Z,7.73
2018-10-03T13:19:45.271Z,8.60
2018-10-03T13:22:14.582Z,6.97
2018-10-03T13:24:43.935Z,9.47
2018-10-03T13:27:13.640Z,9.07
2018-10-03T13:29:44.171Z,7.70
2018-10-03T13:32:14.156Z,8.83
2018-10-03T13:34:43.273Z,7.37
2018-10-03T13:37:12.868Z,7.20
2018-10-03T13:39:43.243Z,7.50
2018-10-03T13:42:11.787Z,8.77
2018-10-03T13:44:41.804Z,9.77
2018-10-03T13:47:11.212Z,10.47
2018-10-03T13:49:40.772Z,8.63
2018-10-03T13:52:09.555Z,8.43
2018-10-03T13:54:39.694Z,7.57
2018-10-03T13:57:09.108Z,9.20
2018-10-03T13:59:38.430Z,8.33
2018-10-03T14:02:09.122Z,6.43
2018-10-03T14:04:39.548Z,9.67
2018-10-03T14:07:09.657Z,6.27
2018-10-03T14:09:39.109Z,8.23
2018-10-03T14:12:08.637Z,8.33
2018-10-03T14:14:37.124Z,6.83
2018-10-03T14:17:06.856Z,10.43
2018-10-03T14:19:36.710Z,7.60
2018-10-03T14:22:07.944Z,5.17
2018-10-03T14:24:38.069Z,7.73
2018-10-03T14:27:07.644Z,8.33
2018-10-03T14:29:36.255Z,6.47
2018-10-03T14:32:05.996Z,5.83
2018-10-03T14:34:36.145Z,5.27
2018-10-03T14:37:05.655Z,8.00
2018-10-03T14:39:35.307Z,6.53
2018-10-03T14:42:04.454Z,6.63
2018-10-03T14:44:35.978Z,4.87
2018-10-03T14:47:06.043Z,8.10
2018-10-03T14:49:36.678Z,6.93
2018-10-03T14:52:05.737Z,9.57
2018-10-03T14:54:35.887Z,4.70
2018-10-03T14:57:05.448Z,6.53
2018-10-03T14:59:36.008Z,5.90
2018-10-03T15:02:04.979Z,4.70
2018-10-03T15:04:34.437Z,6.70
2018-10-03T15:07:05.923Z,7.40
2018-10-03T15:09:34.478Z,7.10
2018-10-03T15:12:03.964Z,5.00
2018-10-03T15:14:33.271Z,4.90
2018-10-03T15:17:03.390Z,6.40
2018-10-03T15:19:32.746Z,4.20
2018-10-03T15:22:01.792Z,6.47
2018-10-03T15:24:31.578Z,5.23
2018-10-03T15:27:03.379Z,6.40
2018-10-03T15:29:32.981Z,6.40
2018-10-03T15:32:02.418Z,5.83
2018-10-03T15:34:32.507Z,5.57
2018-10-03T15:37:01.895Z,9.23
2018-10-03T15:39:32.716Z,6.33
2018-10-03T15:42:03.033Z,8.30
2018-10-03T15:44:33.274Z,7.27
2018-10-03T15:47:08.012Z,7.60
2018-10-03T15:49:37.996Z,6.70
2018-10-03T15:52:07.497Z,6.13
2018-10-03T15:54:36.283Z,6.77
2018-10-03T15:57:06.703Z,6.70
2018-10-03T15:59:35.646Z,9.13
2018-10-03T16:02:05.271Z,8.40
2018-10-03T16:04:35.041Z,8.30
2018-10-03T16:07:04.510Z,11.70
2018-10-03T16:09:34.643Z,6.30
2018-10-03T16:12:05.593Z,11.13
2018-10-03T16:14:35.612Z,11.10
2018-10-03T16:17:09.970Z,8.07
2018-10-03T16:19:39.143Z,7.47
2018-10-03T16:22:09.474Z,15.13
2018-10-03T16:24:38.224Z,10.77
2018-10-03T16:27:07.904Z,10.73
2018-10-03T16:29:37.104Z,9.13
2018-10-03T16:32:07.144Z,10.27
2018-10-03T16:34:36.171Z,12.90
2018-10-03T16:37:06.555Z,10.03
2018-10-03T16:39:35.895Z,7.20
2018-10-03T16:42:05.332Z,13.17
2018-10-03T16:44:35.368Z,12.33
2018-10-03T16:47:09.280Z,13.20
2018-10-03T16:49:38.781Z,9.23
2018-10-03T16:52:07.939Z,15.60
2018-10-03T16:54:37.344Z,13.50
2018-10-03T16:57:06.504Z,9.53
2018-10-03T16:59:36.630Z,9.00
2018-10-03T17:02:06.189Z,8.73
2018-10-03T17:04:35.183Z,11.20
2018-10-03T17:07:03.814Z,17.20
2018-10-03T17:09:33.058Z,16.20
2018-10-03T17:12:04.067Z,16.17
2018-10-03T17:14:36.911Z,13.47
2018-10-03T17:17:12.723Z,14.57
2018-10-03T17:19:41.300Z,15.20
2018-10-03T17:22:10.356Z,28.27
2018-10-03T17:24:39.751Z,18.27
2018-10-03T17:27:09.200Z,15.30
2018-10-03T17:29:39.552Z,20.50
2018-10-03T17:32:08.505Z,23.97
2018-10-03T17:34:39.480Z,23.80
2018-10-03T17:37:09.035Z,56.00
2018-10-03T17:39:37.525Z,16.83
2018-10-03T17:42:08.106Z,23.30
2018-10-03T17:44:37.648Z,27.40
2018-10-03T17:47:07.345Z,19.30
2018-10-03T17:49:37.410Z,13.83
2018-10-03T17:52:08.020Z,13.00
2018-10-03T17:54:41.013Z,16.37
2018-10-03T17:57:12.091Z,8.53
2018-10-03T17:59:40.623Z,10.83
2018-10-03T18:02:12.325Z,13.40
2018-10-03T18:04:41.360Z,10.20
2018-10-03T18:07:11.109Z,13.03
2018-10-03T18:09:41.281Z,49.90
2018-10-03T18:12:10.461Z,33.77
2018-10-03T18:14:39.936Z,23.07
2018-10-03T18:17:09.519Z,15.37
2018-10-03T18:19:40.044Z,18.53
2018-10-03T18:22:09.133Z,9.37
2018-10-03T18:24:38.858Z,11.70
2018-10-03T18:27:09.621Z,12.20
2018-10-03T18:29:39.056Z,11.60
2018-10-03T18:32:09.071Z,10.60
2018-10-03T18:34:44.821Z,12.70
2018-10-03T18:37:16.239Z,12.20
2018-10-03T18:39:47.878Z,10.30
2018-10-03T18:42:17.764Z,8.90
2018-10-03T18:44:49.135Z,13.07
2018-10-03T18:47:21.500Z,8.30
2018-10-03T18:49:52.711Z,7.67
2018-10-03T18:52:21.709Z,7.07
2018-10-03T18:54:52.435Z,10.30
2018-10-03T18:58:50.754Z,8.40
2018-10-03T19:01:21.772Z,7.67
2018-10-03T19:03:51.531Z,8.07
2018-10-03T19:06:21.965Z,10.17
2018-10-03T19:08:50.974Z,8.73
2018-10-03T19:11:24.238Z,12.53
2018-10-03T19:13:54.710Z,10.33
2018-10-03T19:16:24.649Z,12.90
2018-10-03T19:18:54.413Z,9.33
2018-10-03T19:21:24.951Z,11.10
2018-10-03T19:23:54.018Z,9.07
2018-10-03T19:26:26.159Z,10.67
2018-10-03T19:28:57.531Z,22.17
2018-10-03T19:31:27.445Z,11.40
2018-10-03T19:33:57.982Z,11.57
2018-10-03T19:36:26.965Z,9.43
2018-10-03T19:38:56.729Z,11.80
2018-10-03T19:41:25.705Z,10.80
2018-10-03T19:43:55.740Z,14.13
2018-10-03T19:46:27.126Z,9.87
2018-10-03T19:48:57.971Z,8.97
2018-10-03T19:51:26.758Z,10.37
2018-10-03T19:53:57.984Z,7.50
2018-10-03T19:56:27.480Z,9.50
2018-10-03T19:58:57.105Z,8.80
2018-10-03T20:01:26.936Z,10.30
2018-10-03T20:03:57.551Z,9.37
2018-10-03T20:06:26.016Z,9.77
2018-10-03T20:08:57.130Z,9.17
2018-10-03T20:11:27.375Z,8.87
2018-10-03T20:13:57.306Z,8.70
2018-10-03T20:16:27.226Z,9.10
2018-10-03T20:18:58.882Z,8.90
2018-10-03T20:21:27.435Z,7.27
2018-10-03T20:23:57.016Z,8.70
2018-10-03T20:26:26.697Z,10.23
2018-10-03T20:28:59.516Z,8.07
2018-10-03T20:31:30.120Z,7.80
2018-10-03T20:34:02.367Z,11.17
2018-10-03T20:36:32.637Z,10.63
2018-10-03T20:39:03.008Z,11.27
2018-10-03T20:41:32.040Z,11.50
2018-10-03T20:44:03.120Z,10.83
2018-10-03T20:46:32.540Z,6.50
2018-10-03T20:49:01.320Z,12.87
2018-10-03T20:51:31.139Z,7.80
2018-10-03T20:54:01.088Z,8.80
2018-10-03T20:56:30.749Z,11.53
2018-10-03T20:59:01.412Z,8.70
2018-10-03T21:01:31.843Z,10.60
2018-10-03T21:04:00.936Z,11.87
2018-10-03T21:06:30.046Z,10.90
2018-10-03T21:08:58.768Z,11.20
2018-10-03T21:11:28.656Z,11.70
2018-10-03T21:13:57.745Z,12.27
2018-10-03T21:16:28.223Z,10.97
2018-10-03T21:18:57.772Z,11.73
2018-10-03T21:21:27.411Z,10.03
2018-10-03T21:23:56.504Z,10.90
2018-10-03T21:26:25.946Z,10.80
2018-10-03T21:28:55.621Z,11.10
2018-10-03T21:31:24.509Z,11.17
2018-10-03T21:33:53.282Z,15.17
2018-10-03T21:36:22.180Z,9.30
2018-10-03T21:38:51.804Z,11.70
2018-10-03T21:41:21.060Z,10.73
2018-10-03T21:43:49.977Z,13.50
2018-10-03T21:46:19.410Z,11.27
2018-10-03T21:48:49.662Z,11.67
2018-10-03T21:51:19.830Z,11.90
2018-10-03T21:53:49.409Z,12.90
2018-10-03T21:56:19.260Z,13.13
2018-10-03T21:58:47.759Z,12.30
2018-10-03T22:01:17.367Z,11.83
2018-10-03T22:03:46.805Z,13.40
2018-10-03T22:06:16.488Z,13.70
2018-10-03T22:08:45.978Z,13.93
2018-10-03T22:11:15.500Z,17.63
2018-10-03T22:13:44.631Z,13.97
2018-10-03T22:16:13.131Z,12.97
2018-10-03T22:18:42.427Z,13.13
2018-10-03T22:21:13.293Z,12.93
2018-10-03T22:23:43.491Z,11.90
2018-10-03T22:26:12.979Z,12.10
2018-10-03T22:28:42.680Z,10.90
2018-10-03T22:31:12.085Z,11.53
2018-10-03T22:33:42.151Z,10.63
2018-10-03T22:36:11.808Z,11.33
2018-10-03T22:38:41.444Z,13.17
2018-10-03T22:41:09.973Z,11.50
2018-10-03T22:43:39.937Z,11.57
2018-10-03T22:46:09.926Z,14.93
2018-10-03T22:48:39.604Z,10.77
2018-10-03T22:51:09.199Z,13.50
2018-10-03T22:53:38.580Z,13.63
2018-10-03T22:56:08.236Z,13.80
2018-10-03T22:58:36.739Z,12.30
2018-10-03T23:01:08.639Z,12.40
2018-10-03T23:03:39.172Z,13.50
2018-10-03T23:06:08.463Z,11.60
2018-10-03T23:08:37.561Z,11.70
2018-10-03T23:11:06.710Z,10.63
2018-10-03T23:13:38.430Z,15.00
2018-10-03T23:16:08.169Z,9.87
2018-10-03T23:18:39.476Z,11.73
2018-10-03T23:21:08.825Z,11.13
2018-10-03T23:23:40.262Z,14.50
2018-10-03T23:26:09.015Z,14.77
2018-10-03T23:28:37.847Z,13.67
2018-10-03T23:31:07.481Z,12.77
2018-10-03T23:33:36.063Z,11.50
2018-10-03T23:36:07.677Z,12.60
2018-10-03T23:38:37.568Z,9.43
2018-10-03T23:41:06.668Z,10.73
2018-10-03T23:43:35.229Z,10.10
2018-10-03T23:46:06.425Z,12.23
2018-10-03T23:48:35.597Z,12.93
2018-10-03T23:51:05.107Z,12.10
2018-10-03T23:53:36.185Z,12.17
2018-10-03T23:56:05.047Z,13.53
2018-10-03T23:58:33.539Z,9.67
